sensor_id;sensor_type;location;lat;lon;timestamp;P1;durP1;ratioP1;P2;durP2;ratioP2
46717;SDS011;32448;44.960;-0.698;2023-02-28T00:01:26;9.07;;;5.05;;
46717;SDS011;32448;44.960;-0.698;2023-02-28T00:03:54;9.20;;;5.40;;
46717;SDS011;32448;44.960;-0.698;2023-02-28T00:06:23;8.43;;;4.90;;
46717;SDS011;32448;44.960;-0.698;2023-02-28T00:08:51;12.15;;;5.72;;
46717;SDS011;32448;44.960;-0.698;2023-02-28T00:11:18;9.95;;;5.40;;
46717;SDS011;32448;44.960;-0.698;2023-02-28T00:13:46;10.18;;;5.13;;
46717;SDS011;32448;44.960;-0.698;2023-02-28T00:16:15;10.68;;;5.70;;
46717;SDS011;32448;44.960;-0.698;2023-02-28T00:18:48;10.05;;;6.10;;
46717;SDS011;32448;44.960;-0.698;2023-02-28T00:21:18;12.38;;;5.63;;
46717;SDS011;32448;44.960;-0.698;2023-02-28T00:23:46;9.45;;;5.45;;
46717;SDS011;32448;44.960;-0.698;2023-02-28T00:26:14;12.93;;;5.72;;
46717;SDS011;32448;44.960;-0.698;2023-02-28T00:28:44;9.43;;;5.40;;
46717;SDS011;32448;44.960;-0.698;2023-02-28T00:31:11;11.43;;;6.25;;
46717;SDS011;32448;44.960;-0.698;2023-02-28T00:33:39;13.77;;;7.57;;
46717;SDS011;32448;44.960;-0.698;2023-02-28T00:36:07;10.30;;;6.20;;
46717;SDS011;32448;44.960;-0.698;2023-02-28T00:38:37;10.15;;;5.53;;
46717;SDS011;32448;44.960;-0.698;2023-02-28T00:41:06;10.20;;;5.68;;
46717;SDS011;32448;44.960;-0.698;2023-02-28T00:43:34;9.95;;;5.45;;
46717;SDS011;32448;44.960;-0.698;2023-02-28T00:46:05;10.60;;;6.55;;
46717;SDS011;32448;44.960;-0.698;2023-02-28T00:48:34;11.65;;;5.70;;
46717;SDS011;32448;44.960;-0.698;2023-02-28T00:51:02;11.20;;;6.25;;
46717;SDS011;32448;44.960;-0.698;2023-02-28T00:53:30;14.80;;;6.43;;
46717;SDS011;32448;44.960;-0.698;2023-02-28T00:55:59;11.25;;;5.68;;
46717;SDS011;32448;44.960;-0.698;2023-02-28T00:58:26;12.38;;;6.47;;
46717;SDS011;32448;44.960;-0.698;2023-02-28T01:00:54;9.77;;;5.10;;
46717;SDS011;32448;44.960;-0.698;2023-02-28T01:03:27;7.25;;;4.65;;
46717;SDS011;32448;44.960;-0.698;2023-02-28T01:05:54;9.77;;;5.10;;
46717;SDS011;32448;44.960;-0.698;2023-02-28T01:08:22;9.18;;;4.85;;
46717;SDS011;32448;44.960;-0.698;2023-02-28T01:10:53;9.95;;;5.97;;
46717;SDS011;32448;44.960;-0.698;2023-02-28T01:13:25;8.13;;;4.70;;
46717;SDS011;32448;44.960;-0.698;2023-02-28T01:15:54;9.13;;;4.70;;
46717;SDS011;32448;44.960;-0.698;2023-02-28T01:18:23;10.55;;;5.80;;
46717;SDS011;32448;44.960;-0.698;2023-02-28T01:20:51;8.95;;;5.30;;
46717;SDS011;32448;44.960;-0.698;2023-02-28T01:23:19;8.40;;;5.10;;
46717;SDS011;32448;44.960;-0.698;2023-02-28T01:25:50;7.68;;;5.22;;
46717;SDS011;32448;44.960;-0.698;2023-02-28T01:28:18;8.07;;;5.30;;
46717;SDS011;32448;44.960;-0.698;2023-02-28T01:30:49;7.72;;;4.88;;
46717;SDS011;32448;44.960;-0.698;2023-02-28T01:33:17;7.72;;;5.03;;
46717;SDS011;32448;44.960;-0.698;2023-02-28T01:35:45;15.65;;;5.65;;
46717;SDS011;32448;44.960;-0.698;2023-02-28T01:38:12;8.77;;;4.70;;
46717;SDS011;32448;44.960;-0.698;2023-02-28T01:40:48;9.20;;;4.72;;
46717;SDS011;32448;44.960;-0.698;2023-02-28T01:43:20;9.68;;;4.63;;
46717;SDS011;32448;44.960;-0.698;2023-02-28T01:45:50;10.68;;;4.90;;
46717;SDS011;32448;44.960;-0.698;2023-02-28T01:48:18;7.07;;;3.90;;
46717;SDS011;32448;44.960;-0.698;2023-02-28T01:50:48;9.48;;;4.70;;
46717;SDS011;32448;44.960;-0.698;2023-02-28T01:53:18;7.82;;;4.13;;
46717;SDS011;32448;44.960;-0.698;2023-02-28T01:55:49;7.35;;;4.28;;
46717;SDS011;32448;44.960;-0.698;2023-02-28T01:58:20;7.13;;;3.72;;
46717;SDS011;32448;44.960;-0.698;2023-02-28T02:00:47;8.27;;;3.80;;
46717;SDS011;32448;44.960;-0.698;2023-02-28T02:03:16;8.55;;;4.50;;
46717;SDS011;32448;44.960;-0.698;2023-02-28T02:05:47;6.00;;;3.88;;
46717;SDS011;32448;44.960;-0.698;2023-02-28T02:08:16;12.50;;;4.25;;
46717;SDS011;32448;44.960;-0.698;2023-02-28T02:10:50;10.68;;;3.90;;
46717;SDS011;32448;44.960;-0.698;2023-02-28T02:16:33;9.85;;;4.55;;
46717;SDS011;32448;44.960;-0.698;2023-02-28T02:21:58;8.98;;;4.50;;
46717;SDS011;32448;44.960;-0.698;2023-02-28T02:35:52;11.27;;;5.57;;
46717;SDS011;32448;44.960;-0.698;2023-02-28T02:41:24;6.47;;;3.95;;
46717;SDS011;32448;44.960;-0.698;2023-02-28T02:44:28;7.97;;;4.35;;
46717;SDS011;32448;44.960;-0.698;2023-02-28T02:47:03;5.15;;;3.00;;
46717;SDS011;32448;44.960;-0.698;2023-02-28T02:49:46;5.25;;;3.17;;
46717;SDS011;32448;44.960;-0.698;2023-02-28T02:52:20;5.13;;;3.47;;
46717;SDS011;32448;44.960;-0.698;2023-02-28T02:54:52;7.28;;;3.17;;
46717;SDS011;32448;44.960;-0.698;2023-02-28T02:57:29;4.07;;;2.70;;
46717;SDS011;32448;44.960;-0.698;2023-02-28T03:00:18;5.28;;;3.00;;
46717;SDS011;32448;44.960;-0.698;2023-02-28T03:02:52;7.20;;;3.30;;
46717;SDS011;32448;44.960;-0.698;2023-02-28T03:05:27;6.00;;;2.90;;
46717;SDS011;32448;44.960;-0.698;2023-02-28T03:08:03;7.35;;;3.85;;
46717;SDS011;32448;44.960;-0.698;2023-02-28T03:10:39;4.15;;;2.30;;
46717;SDS011;32448;44.960;-0.698;2023-02-28T03:19:14;4.95;;;3.03;;
46717;SDS011;32448;44.960;-0.698;2023-02-28T03:27:21;4.40;;;2.80;;
46717;SDS011;32448;44.960;-0.698;2023-02-28T03:30:05;5.28;;;2.70;;
46717;SDS011;32448;44.960;-0.698;2023-02-28T03:32:52;3.85;;;2.60;;
46717;SDS011;32448;44.960;-0.698;2023-02-28T03:35:25;6.63;;;2.97;;
46717;SDS011;32448;44.960;-0.698;2023-02-28T03:38:18;5.70;;;2.97;;
46717;SDS011;32448;44.960;-0.698;2023-02-28T03:40:51;6.97;;;3.03;;
46717;SDS011;32448;44.960;-0.698;2023-02-28T03:43:28;4.78;;;2.85;;
46717;SDS011;32448;44.960;-0.698;2023-02-28T03:45:59;5.43;;;2.85;;
46717;SDS011;32448;44.960;-0.698;2023-02-28T03:48:35;5.60;;;2.80;;
46717;SDS011;32448;44.960;-0.698;2023-02-28T03:51:04;4.80;;;2.75;;
46717;SDS011;32448;44.960;-0.698;2023-02-28T03:53:38;4.68;;;2.60;;
46717;SDS011;32448;44.960;-0.698;2023-02-28T03:56:17;7.30;;;2.47;;
46717;SDS011;32448;44.960;-0.698;2023-02-28T03:58:55;4.82;;;3.22;;
46717;SDS011;32448;44.960;-0.698;2023-02-28T04:01:31;6.25;;;2.50;;
46717;SDS011;32448;44.960;-0.698;2023-02-28T04:04:03;5.50;;;2.97;;
46717;SDS011;32448;44.960;-0.698;2023-02-28T04:06:32;4.90;;;2.97;;
46717;SDS011;32448;44.960;-0.698;2023-02-28T04:09:01;5.15;;;2.85;;
46717;SDS011;32448;44.960;-0.698;2023-02-28T04:11:37;5.18;;;2.85;;
46717;SDS011;32448;44.960;-0.698;2023-02-28T04:14:06;6.05;;;2.78;;
46717;SDS011;32448;44.960;-0.698;2023-02-28T04:16:39;5.43;;;2.80;;
46717;SDS011;32448;44.960;-0.698;2023-02-28T04:19:08;4.55;;;2.50;;
46717;SDS011;32448;44.960;-0.698;2023-02-28T04:21:47;4.68;;;2.88;;
46717;SDS011;32448;44.960;-0.698;2023-02-28T04:24:17;4.65;;;2.60;;
46717;SDS011;32448;44.960;-0.698;2023-02-28T04:26:47;5.15;;;2.58;;
46717;SDS011;32448;44.960;-0.698;2023-02-28T04:29:21;4.10;;;2.70;;
46717;SDS011;32448;44.960;-0.698;2023-02-28T04:31:57;4.22;;;2.28;;
46717;SDS011;32448;44.960;-0.698;2023-02-28T04:34:27;6.40;;;2.47;;
46717;SDS011;32448;44.960;-0.698;2023-02-28T04:36:57;5.60;;;2.90;;
46717;SDS011;32448;44.960;-0.698;2023-02-28T04:39:39;6.13;;;3.58;;
46717;SDS011;32448;44.960;-0.698;2023-02-28T04:42:08;5.53;;;2.63;;
46717;SDS011;32448;44.960;-0.698;2023-02-28T04:44:35;5.95;;;3.15;;
46717;SDS011;32448;44.960;-0.698;2023-02-28T04:47:03;4.78;;;3.00;;
46717;SDS011;32448;44.960;-0.698;2023-02-28T04:49:30;6.75;;;2.95;;
46717;SDS011;32448;44.960;-0.698;2023-02-28T04:51:57;6.45;;;3.08;;
46717;SDS011;32448;44.960;-0.698;2023-02-28T04:54:25;6.07;;;3.08;;
46717;SDS011;32448;44.960;-0.698;2023-02-28T04:56:54;4.03;;;2.60;;
46717;SDS011;32448;44.960;-0.698;2023-02-28T04:59:21;5.22;;;2.70;;
46717;SDS011;32448;44.960;-0.698;2023-02-28T05:01:49;5.60;;;2.67;;
46717;SDS011;32448;44.960;-0.698;2023-02-28T05:04:17;4.32;;;2.63;;
46717;SDS011;32448;44.960;-0.698;2023-02-28T05:06:48;7.13;;;3.20;;
46717;SDS011;32448;44.960;-0.698;2023-02-28T05:09:15;4.95;;;2.70;;
46717;SDS011;32448;44.960;-0.698;2023-02-28T05:11:43;6.55;;;3.13;;
46717;SDS011;32448;44.960;-0.698;2023-02-28T05:14:11;6.05;;;2.88;;
46717;SDS011;32448;44.960;-0.698;2023-02-28T05:16:39;4.90;;;2.50;;
46717;SDS011;32448;44.960;-0.698;2023-02-28T05:19:07;5.45;;;2.60;;
46717;SDS011;32448;44.960;-0.698;2023-02-28T05:21:35;5.90;;;2.75;;
46717;SDS011;32448;44.960;-0.698;2023-02-28T05:24:11;5.85;;;2.50;;
46717;SDS011;32448;44.960;-0.698;2023-02-28T05:29:08;5.28;;;2.80;;
46717;SDS011;32448;44.960;-0.698;2023-02-28T05:31:36;5.25;;;3.00;;
46717;SDS011;32448;44.960;-0.698;2023-02-28T05:34:05;6.60;;;3.38;;
46717;SDS011;32448;44.960;-0.698;2023-02-28T05:36:33;8.40;;;3.13;;
46717;SDS011;32448;44.960;-0.698;2023-02-28T05:39:04;6.05;;;3.22;;
46717;SDS011;32448;44.960;-0.698;2023-02-28T05:41:33;4.28;;;2.70;;
46717;SDS011;32448;44.960;-0.698;2023-02-28T05:44:02;6.18;;;3.08;;
46717;SDS011;32448;44.960;-0.698;2023-02-28T05:46:31;7.30;;;2.83;;
46717;SDS011;32448;44.960;-0.698;2023-02-28T05:48:59;5.90;;;2.90;;
46717;SDS011;32448;44.960;-0.698;2023-02-28T05:51:27;3.85;;;2.65;;
46717;SDS011;32448;44.960;-0.698;2023-02-28T05:53:58;5.60;;;2.83;;
46717;SDS011;32448;44.960;-0.698;2023-02-28T05:56:27;6.53;;;3.42;;
46717;SDS011;32448;44.960;-0.698;2023-02-28T05:58:58;6.50;;;2.85;;
46717;SDS011;32448;44.960;-0.698;2023-02-28T06:01:34;4.88;;;3.13;;
46717;SDS011;32448;44.960;-0.698;2023-02-28T06:04:04;6.22;;;3.17;;
46717;SDS011;32448;44.960;-0.698;2023-02-28T06:06:33;6.15;;;3.25;;
46717;SDS011;32448;44.960;-0.698;2023-02-28T06:09:04;7.25;;;2.85;;
46717;SDS011;32448;44.960;-0.698;2023-02-28T06:11:32;5.93;;;3.10;;
46717;SDS011;32448;44.960;-0.698;2023-02-28T06:14:01;5.80;;;3.10;;
46717;SDS011;32448;44.960;-0.698;2023-02-28T06:16:30;5.43;;;3.13;;
46717;SDS011;32448;44.960;-0.698;2023-02-28T06:19:01;6.00;;;3.25;;
46717;SDS011;32448;44.960;-0.698;2023-02-28T06:21:30;4.90;;;3.03;;
46717;SDS011;32448;44.960;-0.698;2023-02-28T06:23:58;6.78;;;3.30;;
46717;SDS011;32448;44.960;-0.698;2023-02-28T06:26:27;6.72;;;3.50;;
46717;SDS011;32448;44.960;-0.698;2023-02-28T06:28:56;6.15;;;3.55;;
46717;SDS011;32448;44.960;-0.698;2023-02-28T06:31:23;7.53;;;3.47;;
46717;SDS011;32448;44.960;-0.698;2023-02-28T06:33:53;5.13;;;3.13;;
46717;SDS011;32448;44.960;-0.698;2023-02-28T06:36:21;11.20;;;3.85;;
46717;SDS011;32448;44.960;-0.698;2023-02-28T06:38:49;6.25;;;3.40;;
46717;SDS011;32448;44.960;-0.698;2023-02-28T06:41:22;7.70;;;3.80;;
46717;SDS011;32448;44.960;-0.698;2023-02-28T06:43:52;7.20;;;3.78;;
46717;SDS011;32448;44.960;-0.698;2023-02-28T06:46:21;6.05;;;3.60;;
46717;SDS011;32448;44.960;-0.698;2023-02-28T06:48:49;8.82;;;4.10;;
46717;SDS011;32448;44.960;-0.698;2023-02-28T06:51:19;7.32;;;3.67;;
46717;SDS011;32448;44.960;-0.698;2023-02-28T06:53:50;7.35;;;3.80;;
46717;SDS011;32448;44.960;-0.698;2023-02-28T06:56:17;5.80;;;4.00;;
46717;SDS011;32448;44.960;-0.698;2023-02-28T06:58:46;7.25;;;3.67;;
46717;SDS011;32448;44.960;-0.698;2023-02-28T07:01:18;7.90;;;3.83;;
46717;SDS011;32448;44.960;-0.698;2023-02-28T07:03:47;7.07;;;3.78;;
46717;SDS011;32448;44.960;-0.698;2023-02-28T07:06:19;10.82;;;6.45;;
46717;SDS011;32448;44.960;-0.698;2023-02-28T07:08:51;15.65;;;8.80;;
46717;SDS011;32448;44.960;-0.698;2023-02-28T07:11:27;8.23;;;4.95;;
46717;SDS011;32448;44.960;-0.698;2023-02-28T07:13:55;11.77;;;6.53;;
46717;SDS011;32448;44.960;-0.698;2023-02-28T07:16:24;11.35;;;5.85;;
46717;SDS011;32448;44.960;-0.698;2023-02-28T07:18:52;10.43;;;4.82;;
46717;SDS011;32448;44.960;-0.698;2023-02-28T07:21:20;9.00;;;4.40;;
46717;SDS011;32448;44.960;-0.698;2023-02-28T07:23:49;8.15;;;5.05;;
46717;SDS011;32448;44.960;-0.698;2023-02-28T07:26:18;9.23;;;5.10;;
46717;SDS011;32448;44.960;-0.698;2023-02-28T07:28:47;8.73;;;4.78;;
46717;SDS011;32448;44.960;-0.698;2023-02-28T07:31:16;7.57;;;4.20;;
46717;SDS011;32448;44.960;-0.698;2023-02-28T07:33:45;8.00;;;4.75;;
46717;SDS011;32448;44.960;-0.698;2023-02-28T07:36:13;7.65;;;4.00;;
46717;SDS011;32448;44.960;-0.698;2023-02-28T07:38:43;7.50;;;4.30;;
46717;SDS011;32448;44.960;-0.698;2023-02-28T07:41:19;6.82;;;4.65;;
46717;SDS011;32448;44.960;-0.698;2023-02-28T07:43:48;7.68;;;4.50;;
46717;SDS011;32448;44.960;-0.698;2023-02-28T07:46:15;7.43;;;3.97;;
46717;SDS011;32448;44.960;-0.698;2023-02-28T07:48:44;7.97;;;4.32;;
46717;SDS011;32448;44.960;-0.698;2023-02-28T07:51:11;7.78;;;4.20;;
46717;SDS011;32448;44.960;-0.698;2023-02-28T07:53:39;7.32;;;4.50;;
46717;SDS011;32448;44.960;-0.698;2023-02-28T07:56:08;7.80;;;4.28;;
46717;SDS011;32448;44.960;-0.698;2023-02-28T07:58:37;7.22;;;4.18;;
46717;SDS011;32448;44.960;-0.698;2023-02-28T08:01:05;7.50;;;3.92;;
46717;SDS011;32448;44.960;-0.698;2023-02-28T08:03:34;7.47;;;4.07;;
46717;SDS011;32448;44.960;-0.698;2023-02-28T08:06:15;9.77;;;4.45;;
46717;SDS011;32448;44.960;-0.698;2023-02-28T08:08:44;9.50;;;4.40;;
46717;SDS011;32448;44.960;-0.698;2023-02-28T08:11:17;6.07;;;3.78;;
46717;SDS011;32448;44.960;-0.698;2023-02-28T08:13:45;11.38;;;4.68;;
46717;SDS011;32448;44.960;-0.698;2023-02-28T08:16:13;7.82;;;4.40;;
46717;SDS011;32448;44.960;-0.698;2023-02-28T08:18:44;7.28;;;4.40;;
46717;SDS011;32448;44.960;-0.698;2023-02-28T08:21:11;9.52;;;5.10;;
46717;SDS011;32448;44.960;-0.698;2023-02-28T08:23:39;7.43;;;4.30;;
46717;SDS011;32448;44.960;-0.698;2023-02-28T08:26:06;8.60;;;4.28;;
46717;SDS011;32448;44.960;-0.698;2023-02-28T08:28:34;8.40;;;4.88;;
46717;SDS011;32448;44.960;-0.698;2023-02-28T08:31:01;8.77;;;4.75;;
46717;SDS011;32448;44.960;-0.698;2023-02-28T08:33:34;6.72;;;4.43;;
46717;SDS011;32448;44.960;-0.698;2023-02-28T08:36:02;8.95;;;4.50;;
46717;SDS011;32448;44.960;-0.698;2023-02-28T08:38:31;8.52;;;4.97;;
46717;SDS011;32448;44.960;-0.698;2023-02-28T08:41:09;9.55;;;6.03;;
46717;SDS011;32448;44.960;-0.698;2023-02-28T08:43:43;8.75;;;5.10;;
46717;SDS011;32448;44.960;-0.698;2023-02-28T08:46:13;7.13;;;4.47;;
46717;SDS011;32448;44.960;-0.698;2023-02-28T08:48:41;6.53;;;4.60;;
46717;SDS011;32448;44.960;-0.698;2023-02-28T08:51:26;10.27;;;4.75;;
46717;SDS011;32448;44.960;-0.698;2023-02-28T08:53:57;8.27;;;4.65;;
46717;SDS011;32448;44.960;-0.698;2023-02-28T08:56:28;8.65;;;4.90;;
46717;SDS011;32448;44.960;-0.698;2023-02-28T08:59:08;7.57;;;4.55;;
46717;SDS011;32448;44.960;-0.698;2023-02-28T09:01:36;10.95;;;5.15;;
46717;SDS011;32448;44.960;-0.698;2023-02-28T09:04:10;7.60;;;4.60;;
46717;SDS011;32448;44.960;-0.698;2023-02-28T09:06:42;7.20;;;4.53;;
46717;SDS011;32448;44.960;-0.698;2023-02-28T09:09:15;8.55;;;5.00;;
46717;SDS011;32448;44.960;-0.698;2023-02-28T09:11:42;6.68;;;4.20;;
46717;SDS011;32448;44.960;-0.698;2023-02-28T09:14:11;6.90;;;4.28;;
46717;SDS011;32448;44.960;-0.698;2023-02-28T09:16:40;8.27;;;4.30;;
46717;SDS011;32448;44.960;-0.698;2023-02-28T09:19:11;7.63;;;4.45;;
46717;SDS011;32448;44.960;-0.698;2023-02-28T09:21:43;10.60;;;4.72;;
46717;SDS011;32448;44.960;-0.698;2023-02-28T09:24:10;9.40;;;5.13;;
46717;SDS011;32448;44.960;-0.698;2023-02-28T09:26:40;8.50;;;4.70;;
46717;SDS011;32448;44.960;-0.698;2023-02-28T09:29:21;8.07;;;4.45;;
46717;SDS011;32448;44.960;-0.698;2023-02-28T09:31:48;8.32;;;5.03;;
46717;SDS011;32448;44.960;-0.698;2023-02-28T09:34:16;9.15;;;4.82;;
46717;SDS011;32448;44.960;-0.698;2023-02-28T09:36:44;6.72;;;4.28;;
46717;SDS011;32448;44.960;-0.698;2023-02-28T09:39:12;7.70;;;4.43;;
46717;SDS011;32448;44.960;-0.698;2023-02-28T09:41:43;6.90;;;4.40;;
46717;SDS011;32448;44.960;-0.698;2023-02-28T09:44:20;8.85;;;4.57;;
46717;SDS011;32448;44.960;-0.698;2023-02-28T09:46:55;6.90;;;4.78;;
46717;SDS011;32448;44.960;-0.698;2023-02-28T09:49:38;7.43;;;4.82;;
46717;SDS011;32448;44.960;-0.698;2023-02-28T09:52:14;7.50;;;4.30;;
46717;SDS011;32448;44.960;-0.698;2023-02-28T09:54:46;5.45;;;4.10;;
46717;SDS011;32448;44.960;-0.698;2023-02-28T10:00:27;9.57;;;4.85;;
46717;SDS011;32448;44.960;-0.698;2023-02-28T10:11:28;7.45;;;4.45;;
46717;SDS011;32448;44.960;-0.698;2023-02-28T10:14:04;11.48;;;5.05;;
46717;SDS011;32448;44.960;-0.698;2023-02-28T10:16:40;5.30;;;4.07;;
46717;SDS011;32448;44.960;-0.698;2023-02-28T10:19:38;7.40;;;4.40;;
46717;SDS011;32448;44.960;-0.698;2023-02-28T10:22:15;10.27;;;4.72;;
46717;SDS011;32448;44.960;-0.698;2023-02-28T10:24:50;6.60;;;4.50;;
46717;SDS011;32448;44.960;-0.698;2023-02-28T10:27:26;6.90;;;4.53;;
46717;SDS011;32448;44.960;-0.698;2023-02-28T10:29:59;6.47;;;4.38;;
46717;SDS011;32448;44.960;-0.698;2023-02-28T10:32:34;11.75;;;4.72;;
46717;SDS011;32448;44.960;-0.698;2023-02-28T10:35:15;6.72;;;4.47;;
46717;SDS011;32448;44.960;-0.698;2023-02-28T10:37:46;6.07;;;4.28;;
46717;SDS011;32448;44.960;-0.698;2023-02-28T10:42:58;6.07;;;4.05;;
46717;SDS011;32448;44.960;-0.698;2023-02-28T10:45:33;7.38;;;4.68;;
46717;SDS011;32448;44.960;-0.698;2023-02-28T10:50:43;7.65;;;4.40;;
46717;SDS011;32448;44.960;-0.698;2023-02-28T10:53:15;7.25;;;4.32;;
46717;SDS011;32448;44.960;-0.698;2023-02-28T10:56:33;5.97;;;4.35;;
46717;SDS011;32448;44.960;-0.698;2023-02-28T11:06:59;10.40;;;4.60;;
46717;SDS011;32448;44.960;-0.698;2023-02-28T11:09:29;6.32;;;4.38;;
46717;SDS011;32448;44.960;-0.698;2023-02-28T11:12:02;6.63;;;4.13;;
46717;SDS011;32448;44.960;-0.698;2023-02-28T11:14:34;5.85;;;3.95;;
46717;SDS011;32448;44.960;-0.698;2023-02-28T11:17:19;6.88;;;4.85;;
46717;SDS011;32448;44.960;-0.698;2023-02-28T11:19:51;7.25;;;4.15;;
46717;SDS011;32448;44.960;-0.698;2023-02-28T11:22:24;11.10;;;4.13;;
46717;SDS011;32448;44.960;-0.698;2023-02-28T11:24:59;5.50;;;4.28;;
46717;SDS011;32448;44.960;-0.698;2023-02-28T11:27:45;5.97;;;4.07;;
46717;SDS011;32448;44.960;-0.698;2023-02-28T11:30:37;8.98;;;4.20;;
46717;SDS011;32448;44.960;-0.698;2023-02-28T11:36:08;9.75;;;4.50;;
46717;SDS011;32448;44.960;-0.698;2023-02-28T11:41:52;4.65;;;3.83;;
46717;SDS011;32448;44.960;-0.698;2023-02-28T11:48:00;8.13;;;3.92;;
46717;SDS011;32448;44.960;-0.698;2023-02-28T11:59:03;7.15;;;4.10;;
46717;SDS011;32448;44.960;-0.698;2023-02-28T12:04:15;8.43;;;3.72;;
46717;SDS011;32448;44.960;-0.698;2023-02-28T12:26:36;6.28;;;4.18;;
46717;SDS011;32448;44.960;-0.698;2023-02-28T12:29:12;4.95;;;3.85;;
46717;SDS011;32448;44.960;-0.698;2023-02-28T12:31:48;8.27;;;4.72;;
46717;SDS011;32448;44.960;-0.698;2023-02-28T12:34:22;5.63;;;4.25;;
46717;SDS011;32448;44.960;-0.698;2023-02-28T12:36:56;7.95;;;4.57;;
46717;SDS011;32448;44.960;-0.698;2023-02-28T12:39:37;5.53;;;4.22;;
46717;SDS011;32448;44.960;-0.698;2023-02-28T12:42:23;7.20;;;4.25;;
46717;SDS011;32448;44.960;-0.698;2023-02-28T12:44:57;7.55;;;4.18;;
46717;SDS011;32448;44.960;-0.698;2023-02-28T12:47:27;5.97;;;4.03;;
46717;SDS011;32448;44.960;-0.698;2023-02-28T12:49:59;7.13;;;4.45;;
46717;SDS011;32448;44.960;-0.698;2023-02-28T12:55:23;9.45;;;4.22;;
46717;SDS011;32448;44.960;-0.698;2023-02-28T13:03:37;6.10;;;4.30;;
46717;SDS011;32448;44.960;-0.698;2023-02-28T13:09:12;10.73;;;4.10;;
46717;SDS011;32448;44.960;-0.698;2023-02-28T13:11:43;5.10;;;4.00;;
46717;SDS011;32448;44.960;-0.698;2023-02-28T13:17:00;8.10;;;4.25;;
46717;SDS011;32448;44.960;-0.698;2023-02-28T13:19:36;5.25;;;4.25;;
46717;SDS011;32448;44.960;-0.698;2023-02-28T13:22:19;4.20;;;3.15;;
46717;SDS011;32448;44.960;-0.698;2023-02-28T13:24:53;8.93;;;3.95;;
46717;SDS011;32448;44.960;-0.698;2023-02-28T13:27:31;6.50;;;3.75;;
46717;SDS011;32448;44.960;-0.698;2023-02-28T13:30:58;6.65;;;3.67;;
46717;SDS011;32448;44.960;-0.698;2023-02-28T13:34:11;5.75;;;3.80;;
46717;SDS011;32448;44.960;-0.698;2023-02-28T13:38:54;6.38;;;3.47;;
46717;SDS011;32448;44.960;-0.698;2023-02-28T13:43:59;7.75;;;3.60;;
46717;SDS011;32448;44.960;-0.698;2023-02-28T13:51:48;5.43;;;3.85;;
46717;SDS011;32448;44.960;-0.698;2023-02-28T13:57:18;4.38;;;3.40;;
46717;SDS011;32448;44.960;-0.698;2023-02-28T13:59:50;5.40;;;4.00;;
46717;SDS011;32448;44.960;-0.698;2023-02-28T14:02:47;6.10;;;3.90;;
46717;SDS011;32448;44.960;-0.698;2023-02-28T14:05:28;4.53;;;3.90;;
46717;SDS011;32448;44.960;-0.698;2023-02-28T14:08:02;4.10;;;3.55;;
46717;SDS011;32448;44.960;-0.698;2023-02-28T14:10:37;4.28;;;3.53;;
46717;SDS011;32448;44.960;-0.698;2023-02-28T14:13:13;6.45;;;3.70;;
46717;SDS011;32448;44.960;-0.698;2023-02-28T14:16:03;5.07;;;3.75;;
46717;SDS011;32448;44.960;-0.698;2023-02-28T14:18:33;6.72;;;3.85;;
46717;SDS011;32448;44.960;-0.698;2023-02-28T14:21:22;4.68;;;3.67;;
46717;SDS011;32448;44.960;-0.698;2023-02-28T14:24:06;6.47;;;3.58;;
46717;SDS011;32448;44.960;-0.698;2023-02-28T14:35:52;7.70;;;3.47;;
46717;SDS011;32448;44.960;-0.698;2023-02-28T14:38:23;4.47;;;3.58;;
46717;SDS011;32448;44.960;-0.698;2023-02-28T14:40:56;5.90;;;3.50;;
46717;SDS011;32448;44.960;-0.698;2023-02-28T14:43:28;6.03;;;3.33;;
46717;SDS011;32448;44.960;-0.698;2023-02-28T14:45:57;5.72;;;3.33;;
46717;SDS011;32448;44.960;-0.698;2023-02-28T14:48:27;5.22;;;3.47;;
46717;SDS011;32448;44.960;-0.698;2023-02-28T14:50:56;4.40;;;3.33;;
46717;SDS011;32448;44.960;-0.698;2023-02-28T14:53:29;6.05;;;3.45;;
46717;SDS011;32448;44.960;-0.698;2023-02-28T14:56:02;5.18;;;3.40;;
46717;SDS011;32448;44.960;-0.698;2023-02-28T14:58:30;5.88;;;3.47;;
46717;SDS011;32448;44.960;-0.698;2023-02-28T15:01:01;4.43;;;3.30;;
46717;SDS011;32448;44.960;-0.698;2023-02-28T15:03:31;4.30;;;3.38;;
46717;SDS011;32448;44.960;-0.698;2023-02-28T15:06:05;4.30;;;3.22;;
46717;SDS011;32448;44.960;-0.698;2023-02-28T15:08:39;5.68;;;3.67;;
46717;SDS011;32448;44.960;-0.698;2023-02-28T15:13:42;5.93;;;3.97;;
46717;SDS011;32448;44.960;-0.698;2023-02-28T15:19:23;5.78;;;3.60;;
46717;SDS011;32448;44.960;-0.698;2023-02-28T15:22:00;7.20;;;4.32;;
46717;SDS011;32448;44.960;-0.698;2023-02-28T15:24:47;5.85;;;3.50;;
46717;SDS011;32448;44.960;-0.698;2023-02-28T15:27:20;4.07;;;3.40;;
46717;SDS011;32448;44.960;-0.698;2023-02-28T15:29:53;5.20;;;3.80;;
46717;SDS011;32448;44.960;-0.698;2023-02-28T15:32:30;4.78;;;3.88;;
46717;SDS011;32448;44.960;-0.698;2023-02-28T15:35:17;4.78;;;4.13;;
46717;SDS011;32448;44.960;-0.698;2023-02-28T15:37:46;5.78;;;4.53;;
46717;SDS011;32448;44.960;-0.698;2023-02-28T15:40:23;4.88;;;3.60;;
46717;SDS011;32448;44.960;-0.698;2023-02-28T15:43:15;8.73;;;5.43;;
46717;SDS011;32448;44.960;-0.698;2023-02-28T15:45:45;4.65;;;3.47;;
46717;SDS011;32448;44.960;-0.698;2023-02-28T15:50:55;4.35;;;3.58;;
46717;SDS011;32448;44.960;-0.698;2023-02-28T15:53:26;6.13;;;3.42;;
46717;SDS011;32448;44.960;-0.698;2023-02-28T15:55:58;4.72;;;3.50;;
46717;SDS011;32448;44.960;-0.698;2023-02-28T15:58:31;5.32;;;3.90;;
46717;SDS011;32448;44.960;-0.698;2023-02-28T16:01:01;5.70;;;3.88;;
46717;SDS011;32448;44.960;-0.698;2023-02-28T16:03:41;6.35;;;3.95;;
46717;SDS011;32448;44.960;-0.698;2023-02-28T16:09:00;5.32;;;3.55;;
46717;SDS011;32448;44.960;-0.698;2023-02-28T16:11:28;5.80;;;3.50;;
46717;SDS011;32448;44.960;-0.698;2023-02-28T16:13:56;4.82;;;3.60;;
46717;SDS011;32448;44.960;-0.698;2023-02-28T16:16:24;7.60;;;3.90;;
46717;SDS011;32448;44.960;-0.698;2023-02-28T16:18:53;4.78;;;3.50;;
46717;SDS011;32448;44.960;-0.698;2023-02-28T16:21:22;4.88;;;3.60;;
46717;SDS011;32448;44.960;-0.698;2023-02-28T16:23:50;6.18;;;3.97;;
46717;SDS011;32448;44.960;-0.698;2023-02-28T16:26:21;7.55;;;3.88;;
46717;SDS011;32448;44.960;-0.698;2023-02-28T16:28:53;4.63;;;3.42;;
46717;SDS011;32448;44.960;-0.698;2023-02-28T16:31:21;8.60;;;5.18;;
46717;SDS011;32448;44.960;-0.698;2023-02-28T16:33:48;4.97;;;3.60;;
46717;SDS011;32448;44.960;-0.698;2023-02-28T16:36:20;7.40;;;3.53;;
46717;SDS011;32448;44.960;-0.698;2023-02-28T16:38:51;6.10;;;3.67;;
46717;SDS011;32448;44.960;-0.698;2023-02-28T16:41:19;4.95;;;3.13;;
46717;SDS011;32448;44.960;-0.698;2023-02-28T16:43:50;3.95;;;3.00;;
46717;SDS011;32448;44.960;-0.698;2023-02-28T16:46:19;3.97;;;3.22;;
46717;SDS011;32448;44.960;-0.698;2023-02-28T16:48:47;4.25;;;3.13;;
46717;SDS011;32448;44.960;-0.698;2023-02-28T16:51:18;5.10;;;3.50;;
46717;SDS011;32448;44.960;-0.698;2023-02-28T16:53:45;4.50;;;3.60;;
46717;SDS011;32448;44.960;-0.698;2023-02-28T16:56:17;6.03;;;3.63;;
46717;SDS011;32448;44.960;-0.698;2023-02-28T16:58:47;7.90;;;4.55;;
46717;SDS011;32448;44.960;-0.698;2023-02-28T17:01:16;11.82;;;4.75;;
46717;SDS011;32448;44.960;-0.698;2023-02-28T17:03:49;6.20;;;3.50;;
46717;SDS011;32448;44.960;-0.698;2023-02-28T17:06:23;6.75;;;3.67;;
46717;SDS011;32448;44.960;-0.698;2023-02-28T17:08:54;6.22;;;3.50;;
46717;SDS011;32448;44.960;-0.698;2023-02-28T17:11:22;8.52;;;4.18;;
46717;SDS011;32448;44.960;-0.698;2023-02-28T17:13:50;6.80;;;3.75;;
46717;SDS011;32448;44.960;-0.698;2023-02-28T17:16:23;4.88;;;3.40;;
46717;SDS011;32448;44.960;-0.698;2023-02-28T17:18:51;4.35;;;3.15;;
46717;SDS011;32448;44.960;-0.698;2023-02-28T17:21:20;11.20;;;4.75;;
46717;SDS011;32448;44.960;-0.698;2023-02-28T17:23:49;8.55;;;3.75;;
46717;SDS011;32448;44.960;-0.698;2023-02-28T17:26:17;16.20;;;6.25;;
46717;SDS011;32448;44.960;-0.698;2023-02-28T17:28:51;10.43;;;5.55;;
46717;SDS011;32448;44.960;-0.698;2023-02-28T17:31:25;6.47;;;3.90;;